x

South Hatteras - 225 South Of Cape Hatteras (41002) Wave Buoy

5:50am - Fri 4th Sep 2015 All times are EDT. -4 hours from GMT.

  • Sig Wave height 2.0ft
  • Swell Direction
  • Peak Period 13s
  • Average Period 5s
  • Wind
  • Sea Temp 84°f
  • Air Temp 82°f
  • Sea Pressure 1012.2mb
  • South Hatteras - 225 South Of Cape Hatteras
  • South Hatteras - 225 South Of Cape Hatteras

More Historic Weather Station data

Upgrade to MSW Pro to gain access to the past 30 days of data for over 8000 Wavebouys and Weather Stations around the globe.

Join Pro

Comparision Forecast

View Surf forecast
   
Fri 09/04 5:50am 2ft 13s 5s  -  2 mph 1012.2mb 84f 82f
4:50am 2ft 8s 5s 2 4 mph 1012.2mb 84f 83f
3:50am 1.6ft 12s 5s 2 4 mph 1012.3mb 84f 83f
2:50am 1.6ft 13s 5s 2
mph
1012.3mb 84f 82f
1:50am 1.6ft 4s 4s 4
mph
1012.7mb 84f 82f
12:50am 1.6ft 12s 5s 2 4 mph 1013mb 84f 82f
Thu 09/03 11:50pm 1.6ft 13s 4s  -  2 mph 1013.2mb 84f 82f
10:50pm 1.6ft 13s 5s 4 7 mph 1013mb 84f 83f
9:50pm 1.6ft 12s 5s 7 9 mph 1012.9mb 84f 83f
8:50pm 1.6ft 13s 5s 7 9 mph 1012.6mb 84f 83f
7:50pm 1.6ft 9s 5s 7 9 mph 1012.2mb 84f 83f
6:50pm 1.6ft 12s 5s 7 9 mph 1012.1mb 84f 83f
5:50pm 1.6ft 13s 5s 7 9 mph 1012.4mb 84f 83f
4:50pm 1.6ft 8s 5s 7 9 mph 1012.4mb 85f 84f
3:50pm 1.6ft 12s 5s 9 11 mph 1012.8mb 85f 84f
2:50pm 1.6ft 12s 4s 9 11 mph 1013.5mb 85f 84f
1:50pm 1.6ft 13s 5s 7 9 mph 1013.8mb 85f 84f
12:50pm 1.6ft 12s 5s 7
mph
1014.1mb 85f 84f
11:50am 1.6ft 13s 5s 7
mph
1014.5mb 84f 84f
10:50am 1.6ft 13s 5s 4 7 mph 1014.4mb 84f 84f
9:50am 1.6ft 12s 4s 7 9 mph 1014.1mb 84f 83f
8:50am 1.6ft 12s 5s 7 9 mph 1014.1mb 83f 83f
7:50am 1.6ft 14s 4s 9 11 mph 1013.7mb 83f 83f
6:50am 1.6ft 13s 5s 9 11 mph 1013.4mb 83f 83f
5:50am 1.6ft 10s 5s 9 11 mph 1013.4mb 83f 82f
4:50am 1.6ft 13s 5s 9 11 mph 1013.4mb 83f 82f
3:50am 1.6ft 9s 5s 9 11 mph 1013.6mb 83f 82f
2:50am 1.6ft 12s 4s 9 11 mph 1014.2mb 83f 83f
1:50am 1.6ft 13s 5s 7 9 mph 1014.7mb 83f 83f
12:50am 2ft 9s 4s 7 9 mph 1015.1mb 84f 83f
Wed 09/02 11:50pm 2ft 13s 5s 2 4 mph 1015.2mb 84f 82f
10:50pm 2ft 14s 5s 4 7 mph 1015.3mb 84f 82f
9:50pm 2ft 14s 5s 9
mph
1015.3mb 84f 83f
8:50pm 2ft 8s 5s 9
mph
1015.1mb 84f 83f
7:50pm 2ft 9s 5s 9 11 mph 1014.8mb 84f 83f
6:50pm 2ft 13s 5s 9 11 mph 1014.9mb 84f 83f
5:50pm 2.5ft 8s 5s 9 11 mph 1015.2mb 84f 83f
4:50pm 2ft 14s 5s 9 11 mph 1015.3mb 84f 84f
3:50pm 2.5ft 9s 5s 9 11 mph 1015.9mb 84f 83f
2:50pm 2ft 14s 5s 9 11 mph 1016.7mb 84f 83f
1:50pm 2.5ft 8s 5s 11 13 mph 1017.3mb 84f 83f
12:50pm 2.5ft 13s 5s 9 11 mph 1018mb 84f 83f
11:50am 2.5ft 9s 5s 9 11 mph 1018.5mb 84f 82f
10:50am 2.5ft 14s 5s 9 11 mph 1018.6mb 83f 82f
9:50am 2.5ft 8s 5s 4 7 mph 1018.7mb 83f 81f
8:50am 2.5ft 14s 5s 13 16 mph 1018.1mb 83f 83f
7:50am 2.5ft 10s 5s 9 13 mph 1017.8mb 84f 84f
6:50am 2.5ft 10s 5s 11 13 mph 1017.5mb 84f 84f
5:50am 2.5ft 9s 5s 11 13 mph 1017.1mb 84f 83f
4:50am 2.5ft 9s 5s 9 11 mph 1017.2mb 84f 84f
3:50am 2.5ft 10s 5s 11
mph
1017.4mb 84f 84f
2:50am 2.5ft 5s 5s 11 13 mph 1017.8mb 84f 84f
1:50am 2.5ft 9s 5s 9 11 mph 1018.2mb 84f 84f
12:50am 2.5ft 5s 5s 9 13 mph 1018.3mb 84f 84f
Tue 09/01 11:50pm 2.5ft 5s 5s 9 11 mph 1018.4mb 85f 84f
10:50pm 3ft 6s 5s 9 11 mph 1018.6mb 85f 84f
9:50pm 3ft 5s 5s 7 9 mph 1018.8mb 85f 84f
8:50pm 3ft 6s 5s 7 11 mph 1018.5mb 85f 84f
7:50pm 3ft 6s 5s 7 9 mph 1018mb 85f 83f
6:50pm 3ft 7s 5s 7 11 mph 1018mb 85f 84f
5:50pm 3ft 6s 5s 7 9 mph 1018mb 85f 84f
4:50pm 3ft 6s 5s 7 9 mph 1018mb 85f 85f
3:50pm 3ft 6s 5s 4 7 mph 1018mb 85f 84f
2:50pm 3ft 6s 5s 4
mph
1018.6mb 85f 85f
1:50pm 3ft 6s 5s 4
mph
1019.2mb 84f 84f
12:50pm 3ft 6s 5s 7 9 mph 1019.1mb 84f 84f
11:50am 3ft 7s 5s 2 4 mph 1019.5mb 84f 83f
10:50am 3ft 6s 5s 11 13 mph 1019.6mb 84f 84f
9:50am 3.5ft 6s 5s 11 13 mph 1019.1mb 84f 84f
8:50am 3.5ft 7s 5s 11 13 mph 1018.7mb 84f 84f
7:50am 3.5ft 6s 5s 11 13 mph 1018.5mb 84f 84f
6:50am 3.5ft 7s 6s 11 13 mph 1018mb 84f 84f
5:50am 4ft 7s 5s 11
mph
1018.1mb 84f 84f
4:50am 4ft 7s 5s 9 11 mph 1018.1mb 84f 84f
3:50am 4ft 7s 6s 9 11 mph 1018.2mb 84f 84f
2:50am 4.5ft 7s 6s 13 16 mph 1018.5mb 84f 84f
1:50am 4ft 6s 5s 13 16 mph 1019mb 84f 84f
12:50am 4ft 6s 5s 13 16 mph 1019.3mb 84f 83f
Mon 08/31 11:50pm 4ft 7s 5s 13 16 mph 1019.4mb 84f 84f
10:50pm 4.5ft 6s 5s 13 16 mph 1019.6mb 84f 84f
9:50pm 4.5ft 7s 5s 13 16 mph 1019.7mb 84f 84f
8:50pm 4ft 7s 5s 16 20 mph 1018.5mb 84f 84f
7:50pm 4ft 6s 5s 16 18 mph 1018.6mb 84f 84f
6:50pm 4ft 6s 5s 13 16 mph 1018.8mb 84f 84f
5:50pm 4ft 7s 5s 16 20 mph 1018.6mb 84f 85f
4:50pm 3.5ft 7s 5s 16 18 mph 1018.7mb 84f 84f
3:50pm 3.5ft 6s 5s 16 18 mph 1018.5mb 84f 84f
2:50pm 3.5ft 8s 5s 16 20 mph 1019.4mb 84f 84f
12:50pm 3.5ft 7s 5s 13 16 mph 1020mb 84f 84f
11:50am 3.5ft 9s 6s 16 18 mph 1020.1mb 84f 84f